Time;durP1;ratioP1;P1;durP2;ratioP2;P2;SDS_P1;SDS_P2;PMS_P1;PMS_P2;Temp;Humidity;BMP_temperature;BMP_pressure;BME280_temperature;BME280_humidity;BME280_pressure;Samples;Min_cycle;Max_cycle;Signal;HPM_P1;HPM_P2
2022/07/17 00:00:54;;;;;;;4.70;4.40;;;;;;;23.09;100.00;85683.53;5072614;28;20644;-60
2022/07/17 00:03:21;;;;;;;5.25;4.45;;;;;;;23.04;100.00;83336.50;5072567;28;20284;-62
2022/07/17 00:05:49;;;;;;;4.28;3.97;;;;;;;22.93;100.00;74978.44;5072963;28;20661;-61
2022/07/17 00:08:16;;;;;;;4.05;3.85;;;;;;;23.02;100.00;72991.22;5072529;28;20191;-61
2022/07/17 00:10:44;;;;;;;4.03;3.83;;;;;;;23.04;100.00;68332.94;5071897;28;20225;-62
2022/07/17 00:13:11;;;;;;;4.57;4.07;;;;;;;23.03;100.00;64674.31;5072270;28;20205;-61
2022/07/17 00:15:39;;;;;;;4.78;4.47;;;;;;;22.73;100.00;52373.44;5072520;28;20207;-61
2022/07/17 00:18:07;;;;;;;6.30;4.78;;;;;;;22.76;100.00;45102.50;5072319;28;20185;-61
2022/07/17 00:20:34;;;;;;;5.90;4.97;;;;;;;22.61;100.00;38823.41;5072939;28;20643;-61
2022/07/17 00:23:05;;;;;;;6.38;5.13;;;;;;;22.57;100.00;30592.03;5072416;28;20188;-62
2022/07/17 00:25:32;;;;;;;7.97;5.03;;;;;;;22.61;100.00;29279.19;5072614;28;20584;-61
2022/07/17 00:27:59;;;;;;;6.75;5.07;;;;;;;22.63;100.00;29609.16;5072057;28;20181;-61
2022/07/17 00:30:26;;;;;;;6.40;4.78;;;;;;;22.70;100.00;29612.91;5072255;28;20195;-61
2022/07/17 00:32:53;;;;;;;5.22;4.88;;;;;;;22.72;100.00;29942.72;5072095;28;20220;-61
2022/07/17 00:35:20;;;;;;;5.22;4.82;;;;;;;22.63;100.00;32239.31;5072290;28;20196;-62
2022/07/17 00:37:48;;;;;;;4.93;4.50;;;;;;;22.66;100.00;31912.38;5072361;28;20180;-61
2022/07/17 00:40:19;;;;;;;4.80;4.50;;;;;;;22.71;100.00;34876.78;5072074;28;20188;-61
2022/07/17 00:42:47;;;;;;;6.07;5.13;;;;;;;22.73;100.00;38502.00;5072028;28;20471;-62
2022/07/17 00:45:15;;;;;;;6.30;5.75;;;;;;;22.71;100.00;39818.91;5072178;28;20184;-61
2022/07/17 00:47:53;;;;;;;6.72;5.40;;;;;;;22.56;100.00;38160.59;5072247;28;20200;-61
2022/07/17 00:50:20;;;;;;;5.22;4.70;;;;;;;22.60;100.00;36516.22;5072830;28;20259;-61
2022/07/17 00:52:47;;;;;;;9.52;5.63;;;;;;;22.59;100.00;34869.31;5071657;28;20679;-61
2022/07/17 00:55:15;;;;;;;10.05;6.60;;;;;;;22.47;100.00;34861.88;5072830;28;20200;-62
2022/07/17 00:57:47;;;;;;;9.77;6.50;;;;;;;22.33;100.00;31236.09;5075405;28;20184;-61
2022/07/17 01:00:15;;;;;;;7.60;6.82;;;;;;;22.49;100.00;29930.28;5072335;28;20189;-60
2022/07/17 01:02:47;;;;;;;12.27;6.45;;;;;;;22.52;100.00;30917.72;5071784;28;20197;-59
2022/07/17 01:05:17;;;;;;;5.45;4.93;;;;;;;22.53;100.00;34207.38;5072102;28;20635;-60
2022/07/17 01:07:44;;;;;;;5.55;5.10;;;;;;;22.52;100.00;35852.84;5071950;28;20640;-59
2022/07/17 01:10:12;;;;;;;5.57;5.05;;;;;;;22.50;100.00;37498.06;5071658;28;20201;-59
2022/07/17 01:12:40;;;;;;;5.85;4.65;;;;;;;22.53;100.00;37829.47;5071868;28;20208;-59
2022/07/17 01:15:11;;;;;;;5.53;5.10;;;;;;;22.50;100.00;38156.56;5071881;28;20600;-60
2022/07/17 01:17:38;;;;;;;9.77;8.48;;;;;;;22.50;100.00;37827.13;5071702;28;20199;-60
2022/07/17 01:20:08;;;;;;;16.70;11.93;;;;;;;22.47;100.00;37496.06;5072097;28;20571;-59
2022/07/17 01:22:42;;;;;;;19.70;15.25;;;;;;;22.44;100.00;36505.84;5072516;28;20567;-59
2022/07/17 01:25:10;;;;;;;17.90;16.05;;;;;;;22.47;100.00;38483.97;5075627;28;20238;-59
2022/07/17 01:27:38;;;;;;;19.73;17.67;;;;;;;22.39;100.00;38478.88;5075531;28;20218;-60
2022/07/17 01:30:06;;;;;;;26.38;17.98;;;;;;;22.52;100.00;39805.59;5075486;28;20188;-60
2022/07/17 01:32:34;;;;;;;16.88;15.13;;;;;;;22.56;100.00;42446.53;5075489;28;20209;-60
2022/07/17 01:35:01;;;;;;;17.85;16.08;;;;;;;22.39;100.00;41445.00;5075550;28;20195;-60
2022/07/17 01:37:28;;;;;;;17.58;15.85;;;;;;;22.17;100.00;37476.19;5075700;28;20282;-59
2022/07/17 01:39:57;;;;;;;23.02;15.30;;;;;;;22.15;100.00;34842.63;5075725;28;20189;-59
2022/07/17 01:42:25;;;;;;;17.23;15.70;;;;;;;22.07;100.00;31878.91;5075646;28;20668;-61
2022/07/17 01:44:53;;;;;;;20.40;17.48;;;;;;;22.10;100.00;30894.91;5075415;28;20192;-60
2022/07/17 01:47:21;;;;;;;19.95;17.67;;;;;;;21.93;100.00;26946.56;5075515;28;20184;-60
2022/07/17 01:49:50;;;;;;;27.55;18.02;;;;;;;21.91;100.00;23994.56;5075340;28;20643;-60
2022/07/17 01:52:17;;;;;;;20.90;16.77;;;;;;;21.79;100.00;22023.72;5075031;28;20208;-60
2022/07/17 01:54:44;;;;;;;23.15;16.77;;;;;;;21.83;100.00;21697.88;5075545;28;20563;-60
2022/07/17 01:57:13;;;;;;;19.70;17.65;;;;;;;21.90;100.00;21700.53;5075050;28;20279;-61
2022/07/17 01:59:40;;;;;;;19.55;15.40;;;;;;;21.86;100.00;23664.84;5075058;28;20638;-60
2022/07/17 02:02:08;;;;;;;16.23;14.68;;;;;;;21.85;100.00;25631.09;5074932;28;20276;-60
2022/07/17 02:04:37;;;;;;;25.75;14.07;;;;;;;21.90;100.00;27601.22;5074867;28;20192;-60
2022/07/17 02:07:04;;;;;;;11.70;10.90;;;;;;;21.85;100.00;36139.41;5074766;28;20185;-61
2022/07/17 02:09:31;;;;;;;10.55;9.68;;;;;;;21.88;100.00;48003.50;5075112;28;20189;-60
2022/07/17 02:11:58;;;;;;;13.32;10.32;;;;;;;21.90;100.00;50316.22;5074596;28;20238;-59
2022/07/17 02:14:27;;;;;;;13.52;10.55;;;;;;;21.89;100.00;52298.25;5074636;28;20188;-60
2022/07/17 02:16:54;;;;;;;10.05;8.93;;;;;;;21.84;100.00;58909.88;5074554;28;20184;-60
2022/07/17 02:19:24;;;;;;;11.65;10.45;;;;;;;21.74;100.00;52946.06;5074659;28;20189;-60
2022/07/17 02:21:50;;;;;;;12.20;9.25;;;;;;;21.71;100.00;52281.97;5074969;28;20188;-61
2022/07/17 02:24:17;;;;;;;10.75;9.65;;;;;;;21.71;100.00;60884.16;5074577;28;20184;-61
2022/07/17 02:26:44;;;;;;;13.10;9.82;;;;;;;21.59;100.00;55907.41;5075134;28;20191;-61
2022/07/17 02:29:11;;;;;;;9.52;8.50;;;;;;;21.65;100.00;59553.25;5073396;28;20188;-60
2022/07/17 02:31:39;;;;;;;12.70;8.35;;;;;;;21.58;100.00;66836.56;5074731;28;20236;-60
2022/07/17 02:34:06;;;;;;;9.93;8.90;;;;;;;21.48;100.00;51601.09;5073723;28;20215;-59
2022/07/17 02:36:33;;;;;;;12.98;8.98;;;;;;;21.41;100.00;51595.28;5074989;28;20185;-59
2022/07/17 02:39:00;;;;;;;10.07;8.80;;;;;;;21.36;100.00;47960.94;5074435;28;20654;-60
2022/07/17 02:41:27;;;;;;;12.05;8.75;;;;;;;21.04;100.00;40689.63;5074509;28;20264;-60
2022/07/17 02:43:54;;;;;;;10.05;9.15;;;;;;;20.98;100.00;34442.72;5074703;28;20628;-61
2022/07/17 02:46:20;;;;;;;14.98;13.63;;;;;;;21.04;100.00;33789.53;5074475;28;20188;-60
2022/07/17 02:48:49;;;;;;;16.23;8.93;;;;;;;20.92;100.00;29518.78;5074246;28;20189;-60
2022/07/17 02:51:16;;;;;;;9.33;8.63;;;;;;;20.94;100.00;30175.22;5074062;28;20195;-60
2022/07/17 02:53:43;;;;;;;11.40;10.30;;;;;;;20.89;100.00;26896.16;5073897;28;20308;-60
2022/07/17 02:56:10;;;;;;;29.10;19.98;;;;;;;20.92;100.00;24932.88;5074081;28;20189;-61
2022/07/17 02:58:37;;;;;;;23.00;15.88;;;;;;;20.91;100.00;21007.16;5074133;28;20276;-60
2022/07/17 03:01:04;;;;;;;32.78;19.63;;;;;;;20.82;100.00;20022.88;5074339;28;20189;-61
2022/07/17 03:03:31;;;;;;;21.50;17.73;;;;;;;20.67;100.00;17731.19;5073777;28;20272;-59
2022/07/17 03:05:59;;;;;;;25.73;17.33;;;;;;;20.91;100.00;17412.66;5073762;28;20189;-60
2022/07/17 03:08:26;;;;;;;24.45;16.85;;;;;;;20.91;100.00;23950.63;5074130;28;20185;-60
2022/07/17 03:10:53;;;;;;;27.75;17.20;;;;;;;20.96;100.00;27554.72;5073384;28;20311;-59
2022/07/17 03:13:20;;;;;;;21.42;16.05;;;;;;;20.94;100.00;31814.88;5073675;28;20299;-60
2022/07/17 03:15:47;;;;;;;21.43;16.23;;;;;;;20.90;100.00;33125.09;5073901;28;20658;-60
2022/07/17 03:18:13;;;;;;;21.90;15.75;;;;;;;21.03;100.00;33788.91;5073697;28;20193;-61
2022/07/17 03:20:40;;;;;;;26.27;15.70;;;;;;;21.12;100.00;37078.94;5073393;28;20189;-60
2022/07/17 03:23:09;;;;;;;20.05;14.88;;;;;;;21.62;100.00;50952.63;5073816;28;20635;-60
2022/07/17 03:25:36;;;;;;;23.38;15.00;;;;;;;22.06;100.00;83532.38;5073653;28;20690;-60
2022/07/17 03:28:03;;;;;;;15.93;14.32;;;;;;;22.81;100.00;117203.63;5073265;28;20181;-61
2022/07/17 03:30:30;;;;;;;13.25;12.05;;;;;;;23.58;100.00;151967.47;5073649;28;20189;-60
2022/07/17 03:32:57;;;;;;;13.63;11.20;;;;;;;23.91;100.00;152051.69;5073489;28;20204;-60
2022/07/17 03:35:24;;;;;;;11.93;10.77;;;;;;;23.62;100.00;151978.94;5071902;28;20660;-62
2022/07/17 03:37:51;;;;;;;12.00;10.55;;;;;;;23.35;100.00;151908.69;5073508;28;20185;-60
2022/07/17 03:40:19;;;;;;;10.32;9.27;;;;;;;23.23;100.00;151879.34;5073076;28;20207;-60
2022/07/17 03:42:46;;;;;;;11.38;10.25;;;;;;;22.91;100.00;151799.00;5073381;28;20695;-60
2022/07/17 03:45:13;;;;;;;13.95;9.55;;;;;;;23.01;100.00;151824.47;5072065;28;20189;-60
2022/07/17 03:47:39;;;;;;;11.45;10.10;;;;;;;23.21;100.00;151874.28;5073239;28;20726;-59
2022/07/17 03:50:07;;;;;;;18.80;9.73;;;;;;;23.43;100.00;151929.09;5073261;28;20540;-60
2022/07/17 03:52:34;;;;;;;10.30;8.95;;;;;;;23.54;100.00;151958.53;5072947;28;20196;-60
2022/07/17 03:55:01;;;;;;;13.13;8.95;;;;;;;23.82;100.00;152028.69;5072767;28;20196;-59
2022/07/17 03:57:29;;;;;;;12.73;8.90;;;;;;;23.83;100.00;152030.00;5072706;28;20185;-61
2022/07/17 03:59:56;;;;;;;9.25;8.38;;;;;;;23.90;100.00;152049.13;5072651;28;20185;-60
2022/07/17 04:02:23;;;;;;;7.60;6.88;;;;;;;24.27;100.00;152141.13;5072684;28;20185;-59
2022/07/17 04:04:50;;;;;;;7.55;6.50;;;;;;;24.59;100.00;152222.81;5072869;28;20185;-59
2022/07/17 04:07:30;;;;;;;7.40;6.80;;;;;;;25.03;100.00;152334.00;5072942;28;20215;-60
2022/07/17 04:09:58;;;;;;;6.80;5.85;;;;;;;25.51;100.00;152455.34;5073188;28;20196;-59
2022/07/17 04:12:27;;;;;;;6.85;6.38;;;;;;;25.87;100.00;152547.44;5072357;28;20248;-60
2022/07/17 04:14:56;;;;;;;7.70;7.07;;;;;;;25.94;100.00;152564.03;5072623;28;20208;-60
2022/07/17 04:17:23;;;;;;;9.77;6.53;;;;;;;25.49;100.00;152450.28;5072108;28;20185;-61
2022/07/17 04:19:51;;;;;;;9.30;6.57;;;;;;;25.31;100.00;152404.25;5072478;28;20201;-59
2022/07/17 04:22:18;;;;;;;7.32;6.82;;;;;;;25.67;100.00;152496.34;5072274;28;20185;-59
2022/07/17 04:24:46;;;;;;;6.72;6.00;;;;;;;25.80;100.00;152528.28;5072093;28;20192;-60
2022/07/17 04:27:13;;;;;;;8.70;5.93;;;;;;;26.04;100.00;152588.34;5072474;28;20635;-60
2022/07/17 04:29:40;;;;;;;9.25;6.57;;;;;;;26.21;100.00;152631.84;5072145;28;20192;-60
2022/07/17 04:32:09;;;;;;;6.68;6.10;;;;;;;26.34;100.00;152665.09;5072163;28;20184;-60
2022/07/17 04:34:38;;;;;;;7.30;6.70;;;;;;;26.73;100.00;152764.81;5071812;28;20204;-60
2022/07/17 04:37:05;;;;;;;7.15;6.68;;;;;;;26.71;100.00;152759.72;5072197;28;20187;-59
2022/07/17 04:39:32;;;;;;;8.35;5.97;;;;;;;26.98;100.00;152826.28;5074834;28;20628;-65
2022/07/17 04:41:59;;;;;;;6.82;6.47;;;;;;;27.05;100.00;152844.19;5072012;28;20188;-64
2022/07/17 04:44:26;;;;;;;6.45;5.82;;;;;;;27.17;100.00;152876.16;5071949;28;20188;-65
2022/07/17 04:46:55;;;;;;;5.78;5.43;;;;;;;27.26;100.00;152897.91;5071766;28;20185;-65
2022/07/17 04:49:23;;;;;;;5.50;5.13;;;;;;;27.23;100.00;152891.53;5072060;28;20537;-64
2022/07/17 04:51:50;;;;;;;8.60;5.63;;;;;;;26.69;100.00;152754.59;5072058;28;20608;-65
2022/07/17 04:54:17;;;;;;;6.45;5.72;;;;;;;26.38;100.00;152675.34;5071674;28;20209;-65
2022/07/17 04:56:43;;;;;;;5.22;4.82;;;;;;;26.45;100.00;152693.22;5071761;28;20188;-64
2022/07/17 04:59:10;;;;;;;4.90;4.53;;;;;;;26.76;100.00;152772.53;5071915;28;20265;-65
2022/07/17 05:01:37;;;;;;;5.22;5.03;;;;;;;27.25;100.00;152895.34;5072046;28;20191;-65
2022/07/17 05:04:04;;;;;;;5.55;5.05;;;;;;;27.40;100.00;152933.75;5071887;28;20176;-65
2022/07/17 05:06:32;;;;;;;4.82;4.53;;;;;;;27.79;100.00;153032.31;5071381;28;20189;-66
2022/07/17 05:08:59;;;;;;;5.03;4.85;;;;;;;27.70;100.00;153010.56;5071929;28;20193;-65
2022/07/17 05:11:26;;;;;;;7.45;4.88;;;;;;;27.45;100.00;152946.53;5071633;28;20234;-65
2022/07/17 05:13:54;;;;;;;5.85;4.43;;;;;;;27.77;100.00;153027.19;5071347;28;20208;-64
2022/07/17 05:16:21;;;;;;;4.28;3.97;;;;;;;28.24;100.00;153144.97;5071939;28;20258;-65
2022/07/17 05:18:48;;;;;;;4.15;3.80;;;;;;;28.54;100.00;153223.09;5071492;28;20192;-65
2022/07/17 05:21:15;;;;;;;3.53;3.42;;;;;;;28.87;100.00;153305.06;5071773;28;20184;-65
2022/07/17 05:23:43;;;;;;;3.85;3.75;;;;;;;29.19;100.00;153385.78;5071401;28;20180;-66
2022/07/17 05:26:10;;;;;;;4.25;3.75;;;;;;;29.45;100.00;153453.69;5071269;28;20192;-64
2022/07/17 05:28:37;;;;;;;4.45;3.70;;;;;;;29.25;100.00;153401.09;5071449;28;20191;-64
2022/07/17 05:31:04;;;;;;;3.55;3.25;;;;;;;29.44;100.00;153451.16;5071550;28;20199;-65
2022/07/17 05:33:31;;;;;;;3.17;2.97;;;;;;;29.44;100.00;153451.16;5071445;28;20713;-65
2022/07/17 05:35:58;;;;;;;4.15;3.65;;;;;;;29.48;100.00;153461.41;5071507;28;20184;-64
2022/07/17 05:38:25;;;;;;;3.92;3.63;;;;;;;29.01;100.00;153342.22;5071298;28;20208;-65
2022/07/17 05:40:53;;;;;;;6.80;3.50;;;;;;;29.15;100.00;153375.53;5071574;28;20191;-65
2022/07/17 05:43:20;;;;;;;3.90;3.53;;;;;;;29.54;100.00;153474.16;5071711;28;20619;-65
2022/07/17 05:45:46;;;;;;;3.78;3.47;;;;;;;29.96;99.87;153580.59;5071506;28;20555;-65
2022/07/17 05:48:13;;;;;;;3.83;3.72;;;;;;;29.86;97.66;153557.47;5071560;28;20189;-65
2022/07/17 05:50:40;;;;;;;3.30;3.20;;;;;;;30.17;97.14;153635.66;5071591;28;20579;-64
2022/07/17 05:53:07;;;;;;;5.13;3.53;;;;;;;29.97;95.16;153584.41;5071406;28;20627;-65
2022/07/17 05:55:34;;;;;;;8.05;3.53;;;;;;;30.12;96.59;153622.88;5071089;28;20181;-65
2022/07/17 05:58:02;;;;;;;3.50;3.20;;;;;;;30.39;96.45;153690.78;5071237;28;20189;-65
2022/07/17 06:00:30;;;;;;;4.10;3.40;;;;;;;30.63;94.18;153752.41;5071288;28;20187;-63
2022/07/17 06:02:57;;;;;;;3.20;3.10;;;;;;;30.62;91.95;153749.81;5071203;28;20184;-65
2022/07/17 06:05:25;;;;;;;4.80;3.03;;;;;;;30.84;87.06;153806.22;5071245;28;20556;-65
2022/07/17 06:07:52;;;;;;;5.75;3.30;;;;;;;30.92;87.27;153825.47;5071195;28;20598;-64
2022/07/17 06:10:19;;;;;;;3.67;2.97;;;;;;;30.74;78.29;153779.28;5074129;28;20196;-65
2022/07/17 06:12:46;;;;;;;3.55;3.25;;;;;;;30.89;78.23;153816.50;5074629;28;20184;-65
2022/07/17 06:15:15;;;;;;;4.18;3.35;;;;;;;30.68;77.44;153763.94;5074916;28;20228;-65
2022/07/17 06:17:42;;;;;;;3.42;3.33;;;;;;;31.17;73.40;153889.63;5074636;28;20259;-64
2022/07/17 06:20:10;;;;;;;3.45;3.05;;;;;;;32.13;71.03;154133.41;5074459;28;20181;-65
2022/07/17 06:22:37;;;;;;;2.85;2.75;;;;;;;32.71;64.75;154279.78;5074680;28;20647;-65
2022/07/17 06:25:04;;;;;;;3.28;3.17;;;;;;;32.61;65.47;154254.03;5074300;28;20185;-65
2022/07/17 06:27:31;;;;;;;4.43;3.03;;;;;;;32.75;64.66;154288.75;5072846;28;20196;-65
2022/07/17 06:29:58;;;;;;;3.67;3.38;;;;;;;31.98;62.86;154093.59;5074657;28;20655;-64
2022/07/17 06:32:27;;;;;;;3.20;2.95;;;;;;;31.77;62.63;154039.72;5074116;28;20191;-65
2022/07/17 06:34:54;;;;;;;3.20;3.00;;;;;;;31.99;62.67;154096.19;5074398;28;20213;-66
2022/07/17 06:37:21;;;;;;;3.58;3.28;;;;;;;30.94;65.38;153829.28;5074057;28;20199;-66
2022/07/17 06:39:48;;;;;;;2.83;2.63;;;;;;;31.82;58.99;154052.56;5072724;28;20283;-65
2022/07/17 06:42:16;;;;;;;3.63;3.03;;;;;;;31.54;60.73;153983.28;5074011;28;20189;-66
2022/07/17 06:44:43;;;;;;;3.60;3.40;;;;;;;31.98;61.60;154094.91;5074206;28;20545;-65
2022/07/17 06:47:09;;;;;;;9.50;3.10;;;;;;;32.67;57.07;154269.50;5073858;28;20192;-66
2022/07/17 06:49:38;;;;;;;3.17;3.08;;;;;;;32.51;50.40;154228.34;5074077;28;20559;-65
2022/07/17 06:52:05;;;;;;;3.08;2.88;;;;;;;32.96;48.82;154343.97;5073970;28;20270;-66
2022/07/17 06:54:32;;;;;;;3.00;2.55;;;;;;;33.65;47.05;154518.69;5073933;28;20205;-65
2022/07/17 06:56:59;;;;;;;3.15;3.03;;;;;;;33.37;46.01;154446.69;5073906;28;20185;-65
2022/07/17 06:59:26;;;;;;;3.15;3.03;;;;;;;34.06;47.09;154621.41;5073718;28;20191;-65
2022/07/17 07:01:52;;;;;;;2.92;2.80;;;;;;;33.54;43.24;154490.34;5073960;28;20563;-65
2022/07/17 07:04:19;;;;;;;3.92;2.85;;;;;;;33.23;43.88;154412.00;5073860;28;20552;-65
2022/07/17 07:06:48;;;;;;;4.38;2.58;;;;;;;32.89;43.62;154325.94;5072230;28;20191;-65
2022/07/17 07:09:15;;;;;;;3.00;2.70;;;;;;;32.78;43.38;154297.72;5073639;28;20268;-65
2022/07/17 07:11:42;;;;;;;3.13;2.53;;;;;;;32.92;44.13;154333.69;5073233;28;20239;-64
2022/07/17 07:14:09;;;;;;;2.67;2.58;;;;;;;32.90;43.03;154328.53;5073500;28;20209;-63
2022/07/17 07:16:36;;;;;;;2.40;2.30;;;;;;;33.04;45.51;154364.50;5073305;28;20193;-65
2022/07/17 07:19:03;;;;;;;3.17;2.97;;;;;;;33.47;42.98;154472.38;5073224;28;20255;-65
2022/07/17 07:21:30;;;;;;;7.72;2.60;;;;;;;33.41;42.97;154458.25;5073075;28;20192;-64
2022/07/17 07:23:58;;;;;;;5.25;2.50;;;;;;;32.55;41.78;154239.91;5073084;28;20185;-64
2022/07/17 07:26:26;;;;;;;3.65;2.70;;;;;;;32.84;41.58;154313.16;5073126;28;20189;-64
2022/07/17 07:28:52;;;;;;;3.05;2.40;;;;;;;32.99;43.27;154351.66;5073035;28;20230;-65
2022/07/17 07:31:20;;;;;;;2.60;2.40;;;;;;;32.21;42.61;154152.66;5073436;28;20195;-65
2022/07/17 07:33:47;;;;;;;2.88;2.15;;;;;;;32.43;41.25;154207.81;5073185;28;20492;-65
2022/07/17 07:36:14;;;;;;;2.47;2.38;;;;;;;32.73;43.71;154283.59;5073187;28;20192;-65
2022/07/17 07:38:40;;;;;;;2.90;2.20;;;;;;;32.54;44.05;154237.38;5072782;28;20189;-64
2022/07/17 07:41:09;;;;;;;2.85;2.40;;;;;;;31.99;41.88;154096.19;5072863;28;20196;-63
2022/07/17 07:43:36;;;;;;;2.53;2.30;;;;;;;32.04;41.01;154110.25;5072826;28;20195;-64
2022/07/17 07:46:04;;;;;;;2.45;2.25;;;;;;;31.81;41.49;154049.97;5072656;28;20235;-64
2022/07/17 07:48:30;;;;;;;2.28;2.13;;;;;;;32.23;41.22;154156.50;5073010;28;20188;-64
2022/07/17 07:50:57;;;;;;;2.13;2.03;;;;;;;32.25;41.47;154161.66;5072683;28;20189;-64
2022/07/17 07:53:24;;;;;;;1.88;1.88;;;;;;;32.63;41.49;154259.25;5072859;28;20196;-64
2022/07/17 07:55:51;;;;;;;2.22;2.03;;;;;;;32.96;40.11;154343.97;5071471;28;20224;-64
2022/07/17 07:58:19;;;;;;;2.05;1.95;;;;;;;32.94;39.39;154337.50;5072829;28;20215;-64
2022/07/17 08:00:47;;;;;;;2.85;2.25;;;;;;;33.03;39.68;154361.91;5072443;28;20185;-65
2022/07/17 08:03:15;;;;;;;2.20;2.05;;;;;;;32.47;38.78;154218.09;5072764;28;20185;-64
2022/07/17 08:05:42;;;;;;;2.25;1.98;;;;;;;32.34;39.45;154186.00;5072409;28;20267;-64
2022/07/17 08:08:09;;;;;;;2.33;2.22;;;;;;;32.33;41.06;154183.47;5072421;28;20189;-64
2022/07/17 08:10:36;;;;;;;2.78;1.80;;;;;;;32.58;38.92;154246.34;5072179;28;20236;-63
2022/07/17 08:13:03;;;;;;;2.20;1.95;;;;;;;32.67;39.78;154268.22;5072551;28;20279;-64
2022/07/17 08:15:32;;;;;;;2.92;2.00;;;;;;;32.81;38.54;154305.41;5072402;28;20579;-65
2022/07/17 08:18:00;;;;;;;2.88;2.10;;;;;;;33.59;38.47;154503.19;5071265;28;20705;-64
2022/07/17 08:20:27;;;;;;;4.63;2.35;;;;;;;33.51;37.10;154482.66;5072120;28;20184;-64
2022/07/17 08:22:54;;;;;;;2.33;2.13;;;;;;;33.26;37.12;154418.47;5072435;28;20185;-64
2022/07/17 08:25:21;;;;;;;1.90;1.88;;;;;;;32.93;37.64;154334.97;5072350;28;20185;-64
2022/07/17 08:27:48;;;;;;;4.07;2.25;;;;;;;32.77;38.85;154295.16;5071996;28;20191;-63
2022/07/17 08:30:16;;;;;;;1.88;1.85;;;;;;;32.56;37.51;154242.50;5071115;28;20189;-65
2022/07/17 08:32:44;;;;;;;2.15;2.00;;;;;;;32.53;38.39;154234.81;5070672;28;20650;-65
2022/07/17 08:35:12;;;;;;;3.47;2.03;;;;;;;32.35;39.01;154188.59;5071710;28;20212;-64
2022/07/17 08:37:47;;;;;;;2.03;2.03;;;;;;;32.01;39.93;154102.56;5071885;28;20191;-64
2022/07/17 08:40:18;;;;;;;2.10;2.00;;;;;;;32.52;39.12;154232.22;5071761;28;20187;-65
2022/07/17 08:42:46;;;;;;;1.80;1.77;;;;;;;32.72;37.15;154282.31;5071826;28;20180;-64
2022/07/17 08:45:13;;;;;;;3.90;2.20;;;;;;;32.47;38.60;154219.38;5070930;28;20185;-64
2022/07/17 08:47:40;;;;;;;2.58;2.20;;;;;;;32.62;38.42;154256.66;5071743;28;20184;-65
2022/07/17 08:50:09;;;;;;;2.45;2.13;;;;;;;32.90;39.01;154328.53;5071624;28;20206;-65
2022/07/17 08:52:38;;;;;;;1.85;1.80;;;;;;;32.97;37.02;154346.47;5071685;28;20193;-64
2022/07/17 08:55:09;;;;;;;2.03;1.92;;;;;;;32.89;37.31;154325.94;5071832;28;20205;-65
2022/07/17 08:57:38;;;;;;;2.20;2.10;;;;;;;32.01;37.76;154102.56;5071897;28;20181;-63
2022/07/17 09:00:06;;;;;;;2.05;1.92;;;;;;;32.10;37.98;154124.44;5071683;28;20189;-65
2022/07/17 09:02:33;;;;;;;2.10;2.00;;;;;;;31.96;38.65;154088.44;5071812;28;20640;-65
2022/07/17 09:05:00;;;;;;;2.25;2.15;;;;;;;32.02;39.66;154105.16;5071506;28;20181;-65
2022/07/17 09:07:28;;;;;;;3.25;2.38;;;;;;;32.17;39.30;154142.38;5071503;28;20262;-65
2022/07/17 09:09:55;;;;;;;2.30;2.30;;;;;;;31.61;39.92;153999.97;5071546;28;20207;-66
2022/07/17 09:12:26;;;;;;;3.42;2.22;;;;;;;32.18;41.77;154146.25;5071570;28;20688;-66
2022/07/17 09:14:53;;;;;;;2.03;1.92;;;;;;;32.72;38.56;154282.31;5071710;28;20671;-65
2022/07/17 09:17:20;;;;;;;2.63;1.92;;;;;;;32.76;37.88;154291.34;5071340;28;20282;-65
2022/07/17 09:19:47;;;;;;;2.10;2.00;;;;;;;31.85;39.27;154060.25;5071392;28;20196;-64
2022/07/17 09:22:16;;;;;;;2.00;1.98;;;;;;;32.21;40.84;154152.66;5070444;28;20195;-64
2022/07/17 09:24:48;;;;;;;2.20;2.10;;;;;;;32.76;38.86;154292.56;5071613;28;20666;-64
2022/07/17 09:27:18;;;;;;;2.88;2.20;;;;;;;33.22;37.93;154409.47;5071496;28;20214;-64
2022/07/17 09:29:53;;;;;;;1.80;1.70;;;;;;;33.40;36.36;154454.38;5071240;28;20185;-64
2022/07/17 09:32:21;;;;;;;4.00;2.10;;;;;;;33.96;36.53;154598.28;5071222;28;20185;-64
2022/07/17 09:34:49;;;;;;;2.15;1.98;;;;;;;34.39;36.05;154706.22;5071448;28;20708;-64
2022/07/17 09:37:16;;;;;;;2.25;2.15;;;;;;;35.01;35.50;154863.06;5071757;28;20659;-64
2022/07/17 09:39:49;;;;;;;2.58;2.20;;;;;;;35.47;33.83;154981.34;5071299;28;20185;-64
2022/07/17 09:42:24;;;;;;;2.17;2.08;;;;;;;35.74;33.29;155050.78;5071748;28;20559;-64
2022/07/17 09:45:02;;;;;;;2.45;2.22;;;;;;;35.89;33.42;155086.81;5074124;28;20674;-64
2022/07/17 09:47:31;;;;;;;2.30;2.08;;;;;;;35.84;34.26;155075.22;5075034;28;20199;-64
2022/07/17 09:49:59;;;;;;;3.40;2.10;;;;;;;36.41;33.78;155220.56;5075405;28;20184;-64
2022/07/17 09:52:29;;;;;;;2.28;2.15;;;;;;;36.37;32.90;155209.03;5075017;28;20212;-64
2022/07/17 09:54:58;;;;;;;1.80;1.70;;;;;;;36.27;34.14;155184.59;5075192;28;20231;-64
2022/07/17 09:57:28;;;;;;;2.15;2.05;;;;;;;36.14;33.16;155151.16;5075294;28;20556;-64
2022/07/17 09:59:56;;;;;;;1.73;1.73;;;;;;;36.10;32.66;155140.81;5075165;28;20636;-64
2022/07/17 10:02:24;;;;;;;2.17;2.08;;;;;;;35.87;32.81;155081.63;5074787;28;20306;-63
2022/07/17 10:04:52;;;;;;;2.45;2.35;;;;;;;35.01;33.57;154863.06;5074705;28;20188;-63
2022/07/17 10:07:20;;;;;;;2.00;1.90;;;;;;;35.48;33.63;154983.88;5074783;28;20189;-64
2022/07/17 10:09:47;;;;;;;2.22;2.13;;;;;;;35.64;32.92;155023.81;5074989;28;20201;-63
2022/07/17 10:12:17;;;;;;;1.88;1.88;;;;;;;34.30;33.60;154683.09;5074623;28;20234;-64
2022/07/17 10:14:47;;;;;;;2.10;1.90;;;;;;;34.65;34.37;154773.09;5074697;28;20246;-64
2022/07/17 10:17:15;;;;;;;2.20;2.10;;;;;;;34.89;34.28;154833.47;5074980;28;20189;-65
2022/07/17 10:19:48;;;;;;;2.25;2.15;;;;;;;34.32;34.66;154688.25;5074694;28;20189;-65
2022/07/17 10:22:15;;;;;;;2.22;2.13;;;;;;;34.30;35.03;154683.09;5073292;28;20192;-64
2022/07/17 10:24:47;;;;;;;2.10;2.00;;;;;;;34.07;35.31;154625.28;5074439;28;20193;-64
2022/07/17 10:27:25;;;;;;;2.10;2.00;;;;;;;34.16;37.21;154648.41;5074682;28;20542;-64
2022/07/17 10:30:03;;;;;;;1.95;1.85;;;;;;;34.60;37.23;154760.19;5074816;28;20582;-63
2022/07/17 10:32:30;;;;;;;4.47;2.28;;;;;;;34.53;35.04;154740.91;5074559;28;20200;-65
2022/07/17 10:35:00;;;;;;;2.72;2.08;;;;;;;34.70;35.64;154784.66;5074413;28;20260;-64
2022/07/17 10:37:33;;;;;;;2.10;2.00;;;;;;;35.23;36.22;154919.63;5074865;28;20184;-65
2022/07/17 10:40:04;;;;;;;2.55;2.33;;;;;;;35.74;34.84;155050.78;5074408;28;20184;-64
2022/07/17 10:42:53;;;;;;;1.92;1.92;;;;;;;36.26;34.24;155182.00;5073272;28;20184;-64
2022/07/17 10:45:23;;;;;;;2.30;2.20;;;;;;;36.37;33.95;155210.28;5074043;28;20249;-64
2022/07/17 10:47:56;;;;;;;1.77;1.70;;;;;;;36.34;32.93;155202.56;5074269;28;20279;-64
2022/07/17 10:50:27;;;;;;;2.20;2.00;;;;;;;36.09;33.11;155138.22;5073965;28;20189;-66
2022/07/17 10:52:59;;;;;;;2.40;2.30;;;;;;;35.88;33.60;155085.53;5074125;28;20195;-64
2022/07/17 10:55:26;;;;;;;2.30;2.10;;;;;;;35.36;34.03;154951.75;5073730;28;20215;-64
2022/07/17 10:57:56;;;;;;;4.82;2.38;;;;;;;35.25;34.57;154924.78;5073843;28;20196;-64
2022/07/17 11:00:23;;;;;;;2.25;2.10;;;;;;;35.13;35.19;154893.91;5074270;28;20634;-64
2022/07/17 11:02:50;;;;;;;2.40;2.10;;;;;;;34.66;35.03;154774.38;5073695;28;20185;-63
2022/07/17 11:05:17;;;;;;;3.97;2.42;;;;;;;34.30;34.74;154684.38;5073593;28;20181;-65
2022/07/17 11:07:53;;;;;;;2.40;2.30;;;;;;;33.99;36.25;154603.44;5073578;28;20188;-65
2022/07/17 11:10:21;;;;;;;2.30;2.20;;;;;;;33.93;35.93;154590.56;5072588;28;20232;-65
2022/07/17 11:12:49;;;;;;;2.33;2.05;;;;;;;33.48;36.23;154474.97;5073822;28;20609;-64
2022/07/17 11:15:18;;;;;;;2.38;2.28;;;;;;;33.28;36.37;154423.56;5073659;28;20204;-65
2022/07/17 11:17:46;;;;;;;4.10;2.20;;;;;;;32.50;37.29;154225.81;5073491;28;20185;-65
2022/07/17 11:20:14;;;;;;;2.10;2.00;;;;;;;32.27;38.62;154168.06;5073736;28;20185;-64
2022/07/17 11:22:41;;;;;;;3.33;2.42;;;;;;;32.56;37.70;154242.50;5073490;28;20199;-65